sensor_id;sensor_type;location;lat;lon;timestamp;pressure;altitude;pressure_sealevel;temperature;humidity
21520;BME280;10921;53.614;9.882;2022-07-03T00:01:53;101539.91;;;19.77;63.09
21520;BME280;10921;53.614;9.882;2022-07-03T00:04:20;101544.66;;;19.75;63.35
21520;BME280;10921;53.614;9.882;2022-07-03T00:06:47;101536.91;;;19.72;63.52
21520;BME280;10921;53.614;9.882;2022-07-03T00:09:14;101534.19;;;19.72;63.81
21520;BME280;10921;53.614;9.882;2022-07-03T00:11:41;101540.63;;;19.71;64.08
21520;BME280;10921;53.614;9.882;2022-07-03T00:14:08;101540.00;;;19.69;63.33
21520;BME280;10921;53.614;9.882;2022-07-03T00:16:34;101530.84;;;19.70;62.97
21520;BME280;10921;53.614;9.882;2022-07-03T00:19:02;101526.47;;;19.69;62.87
21520;BME280;10921;53.614;9.882;2022-07-03T00:21:35;101524.19;;;19.73;63.11
21520;BME280;10921;53.614;9.882;2022-07-03T00:24:08;101522.31;;;19.73;62.70
21520;BME280;10921;53.614;9.882;2022-07-03T00:26:39;101517.56;;;19.75;62.49
21520;BME280;10921;53.614;9.882;2022-07-03T00:29:07;101514.03;;;19.75;62.93
21520;BME280;10921;53.614;9.882;2022-07-03T00:31:35;101504.41;;;19.72;61.82
21520;BME280;10921;53.614;9.882;2022-07-03T00:34:02;101510.59;;;19.81;61.97
21520;BME280;10921;53.614;9.882;2022-07-03T00:36:33;101505.84;;;19.83;61.68
21520;BME280;10921;53.614;9.882;2022-07-03T00:39:00;101506.50;;;19.85;61.32
21520;BME280;10921;53.614;9.882;2022-07-03T00:41:28;101499.00;;;19.87;61.44
21520;BME280;10921;53.614;9.882;2022-07-03T00:43:55;101504.41;;;19.87;61.79
21520;BME280;10921;53.614;9.882;2022-07-03T00:46:24;101495.91;;;19.90;62.28
21520;BME280;10921;53.614;9.882;2022-07-03T00:48:53;101495.91;;;19.90;61.34
21520;BME280;10921;53.614;9.882;2022-07-03T00:51:25;101486.59;;;19.92;60.82
21520;BME280;10921;53.614;9.882;2022-07-03T00:53:57;101487.25;;;19.94;61.03
21520;BME280;10921;53.614;9.882;2022-07-03T00:56:29;101473.03;;;19.92;60.12
21520;BME280;10921;53.614;9.882;2022-07-03T00:58:58;101478.94;;;19.96;59.53
21520;BME280;10921;53.614;9.882;2022-07-03T01:01:35;101471.91;;;20.01;58.81
21520;BME280;10921;53.614;9.882;2022-07-03T01:07:10;101460.88;;;20.03;57.34
21520;BME280;10921;53.614;9.882;2022-07-03T01:09:52;101475.84;;;20.14;57.78
21520;BME280;10921;53.614;9.882;2022-07-03T01:12:41;101468.63;;;20.21;57.13
21520;BME280;10921;53.614;9.882;2022-07-03T01:27:19;101459.09;;;20.40;55.23
21520;BME280;10921;53.614;9.882;2022-07-03T01:32:14;101455.69;;;20.52;54.99
21520;BME280;10921;53.614;9.882;2022-07-03T01:34:43;101442.00;;;20.60;54.58
21520;BME280;10921;53.614;9.882;2022-07-03T01:37:14;101440.84;;;20.69;53.96
21520;BME280;10921;53.614;9.882;2022-07-03T01:39:43;101442.59;;;20.77;53.54
21520;BME280;10921;53.614;9.882;2022-07-03T01:42:22;101445.38;;;20.84;53.53
21520;BME280;10921;53.614;9.882;2022-07-03T01:44:51;101444.59;;;20.90;53.11
21520;BME280;10921;53.614;9.882;2022-07-03T01:47:18;101441.09;;;20.96;52.67
21520;BME280;10921;53.614;9.882;2022-07-03T01:49:53;101438.63;;;21.01;53.18
21520;BME280;10921;53.614;9.882;2022-07-03T01:52:21;101436.19;;;21.06;52.79
21520;BME280;10921;53.614;9.882;2022-07-03T01:55:09;101432.03;;;21.10;53.07
21520;BME280;10921;53.614;9.882;2022-07-03T01:57:47;101426.84;;;21.15;52.43
21520;BME280;10921;53.614;9.882;2022-07-03T02:00:20;101427.50;;;21.17;52.22
21520;BME280;10921;53.614;9.882;2022-07-03T02:03:02;101423.75;;;21.18;52.32
21520;BME280;10921;53.614;9.882;2022-07-03T02:05:45;101427.31;;;21.19;52.15
21520;BME280;10921;53.614;9.882;2022-07-03T02:11:10;101427.16;;;21.20;53.07
21520;BME280;10921;53.614;9.882;2022-07-03T02:14:17;101412.34;;;21.23;52.19
21520;BME280;10921;53.614;9.882;2022-07-03T02:17:21;101427.78;;;21.22;52.10
21520;BME280;10921;53.614;9.882;2022-07-03T02:22:21;101421.44;;;21.15;52.02
21520;BME280;10921;53.614;9.882;2022-07-03T02:24:52;101416.59;;;21.11;52.22
21520;BME280;10921;53.614;9.882;2022-07-03T02:27:23;101415.53;;;21.12;52.24
21520;BME280;10921;53.614;9.882;2022-07-03T02:30:12;101415.53;;;21.12;52.50
21520;BME280;10921;53.614;9.882;2022-07-03T02:32:59;101405.09;;;21.08;52.52
21520;BME280;10921;53.614;9.882;2022-07-03T02:38:20;101411.50;;;21.01;52.77
21520;BME280;10921;53.614;9.882;2022-07-03T02:43:41;101403.06;;;20.89;52.80
21520;BME280;10921;53.614;9.882;2022-07-03T02:46:37;101408.22;;;20.84;53.15
21520;BME280;10921;53.614;9.882;2022-07-03T02:49:42;101417.59;;;20.82;53.46
21520;BME280;10921;53.614;9.882;2022-07-03T02:52:54;101418.19;;;20.77;53.51
21520;BME280;10921;53.614;9.882;2022-07-03T03:00:58;101409.84;;;20.57;54.57
21520;BME280;10921;53.614;9.882;2022-07-03T03:03:28;101403.97;;;20.54;54.53
21520;BME280;10921;53.614;9.882;2022-07-03T03:06:02;101405.19;;;20.51;54.64
21520;BME280;10921;53.614;9.882;2022-07-03T03:08:37;101403.47;;;20.44;55.24
21520;BME280;10921;53.614;9.882;2022-07-03T03:11:09;101395.59;;;20.34;55.96
21520;BME280;10921;53.614;9.882;2022-07-03T03:13:45;101389.94;;;20.29;55.90
21520;BME280;10921;53.614;9.882;2022-07-03T03:16:15;101390.88;;;20.21;56.65
21520;BME280;10921;53.614;9.882;2022-07-03T03:18:41;101394.38;;;20.15;57.19
21520;BME280;10921;53.614;9.882;2022-07-03T03:21:09;101388.19;;;20.07;56.96
21520;BME280;10921;53.614;9.882;2022-07-03T03:23:48;101390.06;;;20.06;57.24
21520;BME280;10921;53.614;9.882;2022-07-03T03:28:46;101394.50;;;19.92;57.44
21520;BME280;10921;53.614;9.882;2022-07-03T03:31:13;101390.47;;;19.88;57.42
21520;BME280;10921;53.614;9.882;2022-07-03T03:33:41;101398.34;;;19.83;57.60
21520;BME280;10921;53.614;9.882;2022-07-03T03:36:10;101392.66;;;19.78;57.29
21520;BME280;10921;53.614;9.882;2022-07-03T03:38:38;101388.81;;;19.73;58.25
21520;BME280;10921;53.614;9.882;2022-07-03T03:41:06;101384.53;;;19.63;58.66
21520;BME280;10921;53.614;9.882;2022-07-03T03:43:33;101380.31;;;19.61;58.71
21520;BME280;10921;53.614;9.882;2022-07-03T03:46:00;101383.81;;;19.55;59.16
21520;BME280;10921;53.614;9.882;2022-07-03T03:48:28;101388.94;;;19.50;58.92
21520;BME280;10921;53.614;9.882;2022-07-03T03:50:59;101385.91;;;19.45;59.55
21520;BME280;10921;53.614;9.882;2022-07-03T03:53:26;101391.22;;;19.38;59.08
21520;BME280;10921;53.614;9.882;2022-07-03T03:56:01;101382.44;;;19.36;59.75
21520;BME280;10921;53.614;9.882;2022-07-03T03:58:29;101379.63;;;19.29;60.11
21520;BME280;10921;53.614;9.882;2022-07-03T04:00:57;101379.81;;;19.28;59.73
21520;BME280;10921;53.614;9.882;2022-07-03T04:03:25;101377.97;;;19.28;59.54
21520;BME280;10921;53.614;9.882;2022-07-03T04:05:52;101382.16;;;19.31;58.83
21520;BME280;10921;53.614;9.882;2022-07-03T04:08:20;101381.63;;;19.36;58.59
21520;BME280;10921;53.614;9.882;2022-07-03T04:10:47;101379.38;;;19.39;58.80
21520;BME280;10921;53.614;9.882;2022-07-03T04:13:15;101386.06;;;19.43;59.29
21520;BME280;10921;53.614;9.882;2022-07-03T04:15:42;101375.72;;;19.47;58.90
21520;BME280;10921;53.614;9.882;2022-07-03T04:18:09;101374.19;;;19.52;59.24
21520;BME280;10921;53.614;9.882;2022-07-03T04:20:35;101376.97;;;19.59;57.96
21520;BME280;10921;53.614;9.882;2022-07-03T04:23:02;101369.50;;;19.61;58.71
21520;BME280;10921;53.614;9.882;2022-07-03T04:25:28;101378.16;;;19.71;59.24
21520;BME280;10921;53.614;9.882;2022-07-03T04:27:56;101371.16;;;19.77;58.39
21520;BME280;10921;53.614;9.882;2022-07-03T04:30:43;101374.81;;;19.84;57.39
21520;BME280;10921;53.614;9.882;2022-07-03T04:33:09;101380.28;;;19.90;57.67
21520;BME280;10921;53.614;9.882;2022-07-03T04:35:36;101383.09;;;19.97;57.24
21520;BME280;10921;53.614;9.882;2022-07-03T04:38:02;101391.09;;;20.05;57.33
21520;BME280;10921;53.614;9.882;2022-07-03T04:40:29;101396.78;;;20.10;56.07
21520;BME280;10921;53.614;9.882;2022-07-03T04:42:55;101404.97;;;20.17;56.51
21520;BME280;10921;53.614;9.882;2022-07-03T04:45:22;101400.50;;;20.24;56.23
21520;BME280;10921;53.614;9.882;2022-07-03T04:47:48;101403.47;;;20.29;57.18
21520;BME280;10921;53.614;9.882;2022-07-03T04:50:15;101404.97;;;20.31;56.51
21520;BME280;10921;53.614;9.882;2022-07-03T04:52:41;101416.94;;;20.37;56.28
21520;BME280;10921;53.614;9.882;2022-07-03T04:55:08;101406.75;;;20.39;58.01
21520;BME280;10921;53.614;9.882;2022-07-03T04:57:36;101397.38;;;20.42;57.90
21520;BME280;10921;53.614;9.882;2022-07-03T05:00:03;101402.44;;;20.45;56.66
21520;BME280;10921;53.614;9.882;2022-07-03T05:02:30;101401.19;;;20.47;56.91
21520;BME280;10921;53.614;9.882;2022-07-03T05:04:57;101396.41;;;20.49;57.40
21520;BME280;10921;53.614;9.882;2022-07-03T05:07:24;101407.25;;;20.49;57.05
21520;BME280;10921;53.614;9.882;2022-07-03T05:09:50;101414.81;;;20.54;57.19
21520;BME280;10921;53.614;9.882;2022-07-03T05:12:16;101405.66;;;20.55;57.35
21520;BME280;10921;53.614;9.882;2022-07-03T05:14:44;101404.44;;;20.57;57.03
21520;BME280;10921;53.614;9.882;2022-07-03T05:17:10;101402.75;;;20.56;57.87
21520;BME280;10921;53.614;9.882;2022-07-03T05:19:37;101399.00;;;20.57;57.61
21520;BME280;10921;53.614;9.882;2022-07-03T05:22:04;101409.06;;;20.63;58.82
21520;BME280;10921;53.614;9.882;2022-07-03T05:24:31;101407.84;;;20.66;58.06
21520;BME280;10921;53.614;9.882;2022-07-03T05:26:57;101401.84;;;20.70;59.05
21520;BME280;10921;53.614;9.882;2022-07-03T05:29:24;101402.94;;;20.76;58.49
21520;BME280;10921;53.614;9.882;2022-07-03T05:31:50;101392.72;;;20.78;58.81
21520;BME280;10921;53.614;9.882;2022-07-03T05:34:17;101401.78;;;20.85;58.65
21520;BME280;10921;53.614;9.882;2022-07-03T05:36:43;101399.75;;;20.94;57.97
21520;BME280;10921;53.614;9.882;2022-07-03T05:39:10;101405.03;;;21.02;57.73
21520;BME280;10921;53.614;9.882;2022-07-03T05:41:55;101402.81;;;21.12;57.77
21520;BME280;10921;53.614;9.882;2022-07-03T05:44:21;101402.34;;;21.23;56.59
21520;BME280;10921;53.614;9.882;2022-07-03T05:46:48;101407.66;;;21.38;56.31
21520;BME280;10921;53.614;9.882;2022-07-03T05:49:15;101414.41;;;21.49;56.83
21520;BME280;10921;53.614;9.882;2022-07-03T05:51:42;101415.38;;;21.69;54.27
21520;BME280;10921;53.614;9.882;2022-07-03T05:54:08;101415.44;;;21.89;53.14
21520;BME280;10921;53.614;9.882;2022-07-03T05:56:35;101415.13;;;22.05;51.54
21520;BME280;10921;53.614;9.882;2022-07-03T05:59:02;101411.88;;;22.36;52.31
21520;BME280;10921;53.614;9.882;2022-07-03T06:01:28;101407.13;;;22.64;52.19
21520;BME280;10921;53.614;9.882;2022-07-03T06:03:55;101406.78;;;22.94;50.36
21520;BME280;10921;53.614;9.882;2022-07-03T06:06:21;101404.91;;;23.21;49.96
21520;BME280;10921;53.614;9.882;2022-07-03T06:08:48;101408.81;;;23.44;49.24
21520;BME280;10921;53.614;9.882;2022-07-03T06:11:14;101405.44;;;23.69;47.32
21520;BME280;10921;53.614;9.882;2022-07-03T06:13:41;101395.94;;;23.91;47.77
21520;BME280;10921;53.614;9.882;2022-07-03T06:16:07;101402.78;;;24.13;46.62
21520;BME280;10921;53.614;9.882;2022-07-03T06:18:34;101399.13;;;24.33;45.79
21520;BME280;10921;53.614;9.882;2022-07-03T06:21:00;101403.22;;;24.48;45.68
21520;BME280;10921;53.614;9.882;2022-07-03T06:23:27;101401.22;;;24.62;45.90
21520;BME280;10921;53.614;9.882;2022-07-03T06:26:12;101407.00;;;24.79;45.61
21520;BME280;10921;53.614;9.882;2022-07-03T06:28:39;101410.44;;;24.93;45.33
21520;BME280;10921;53.614;9.882;2022-07-03T06:31:05;101410.22;;;25.01;45.24
21520;BME280;10921;53.614;9.882;2022-07-03T06:33:32;101409.16;;;25.02;44.99
21520;BME280;10921;53.614;9.882;2022-07-03T06:35:58;101409.50;;;25.12;44.96
21520;BME280;10921;53.614;9.882;2022-07-03T06:38:25;101412.19;;;25.18;44.44
21520;BME280;10921;53.614;9.882;2022-07-03T06:40:51;101413.16;;;25.24;44.70
21520;BME280;10921;53.614;9.882;2022-07-03T06:43:18;101415.84;;;25.31;44.14
21520;BME280;10921;53.614;9.882;2022-07-03T06:45:44;101405.22;;;25.41;43.87
21520;BME280;10921;53.614;9.882;2022-07-03T06:48:11;101416.94;;;25.48;44.94
21520;BME280;10921;53.614;9.882;2022-07-03T06:50:38;101416.00;;;25.54;44.08
21520;BME280;10921;53.614;9.882;2022-07-03T06:53:04;101413.88;;;25.56;44.82
21520;BME280;10921;53.614;9.882;2022-07-03T06:55:31;101404.84;;;25.55;43.66
21520;BME280;10921;53.614;9.882;2022-07-03T06:57:57;101409.25;;;25.56;43.79
21520;BME280;10921;53.614;9.882;2022-07-03T07:00:24;101413.03;;;25.55;43.61
21520;BME280;10921;53.614;9.882;2022-07-03T07:02:50;101406.53;;;25.56;45.33
21520;BME280;10921;53.614;9.882;2022-07-03T07:05:17;101409.69;;;25.53;43.32
21520;BME280;10921;53.614;9.882;2022-07-03T07:07:43;101407.91;;;25.47;42.94
21520;BME280;10921;53.614;9.882;2022-07-03T07:10:10;101409.56;;;25.48;43.70
21520;BME280;10921;53.614;9.882;2022-07-03T07:12:36;101415.03;;;25.48;43.96
21520;BME280;10921;53.614;9.882;2022-07-03T07:15:04;101413.75;;;25.51;44.43
21520;BME280;10921;53.614;9.882;2022-07-03T07:17:31;101403.63;;;25.51;44.03
21520;BME280;10921;53.614;9.882;2022-07-03T07:19:58;101409.44;;;25.62;44.79
21520;BME280;10921;53.614;9.882;2022-07-03T07:22:24;101401.78;;;25.70;44.34
21520;BME280;10921;53.614;9.882;2022-07-03T07:24:52;101419.06;;;25.82;44.23
21520;BME280;10921;53.614;9.882;2022-07-03T07:27:19;101417.72;;;25.91;43.14
21520;BME280;10921;53.614;9.882;2022-07-03T07:29:45;101417.03;;;25.96;43.51
21520;BME280;10921;53.614;9.882;2022-07-03T07:32:12;101417.16;;;26.01;43.14
21520;BME280;10921;53.614;9.882;2022-07-03T07:34:39;101411.41;;;26.09;43.31
21520;BME280;10921;53.614;9.882;2022-07-03T07:37:05;101409.03;;;26.13;44.31
21520;BME280;10921;53.614;9.882;2022-07-03T07:39:32;101417.59;;;26.16;43.02
21520;BME280;10921;53.614;9.882;2022-07-03T07:41:59;101417.75;;;26.21;42.86
21520;BME280;10921;53.614;9.882;2022-07-03T07:44:25;101413.06;;;26.28;43.86
21520;BME280;10921;53.614;9.882;2022-07-03T07:46:52;101411.16;;;26.29;43.00
21520;BME280;10921;53.614;9.882;2022-07-03T07:49:18;101418.91;;;26.32;43.40
21520;BME280;10921;53.614;9.882;2022-07-03T07:51:45;101422.16;;;26.41;43.47
21520;BME280;10921;53.614;9.882;2022-07-03T07:54:12;101419.31;;;26.47;42.99
21520;BME280;10921;53.614;9.882;2022-07-03T07:56:38;101426.03;;;26.63;43.49
21520;BME280;10921;53.614;9.882;2022-07-03T07:59:05;101424.03;;;26.70;42.90
21520;BME280;10921;53.614;9.882;2022-07-03T08:01:31;101420.97;;;26.90;42.58
21520;BME280;10921;53.614;9.882;2022-07-03T08:04:16;101419.97;;;27.14;41.38
21520;BME280;10921;53.614;9.882;2022-07-03T08:07:03;101427.03;;;27.34;41.45
21520;BME280;10921;53.614;9.882;2022-07-03T08:09:29;101430.94;;;27.49;41.13
21520;BME280;10921;53.614;9.882;2022-07-03T08:11:56;101428.00;;;27.62;41.96
21520;BME280;10921;53.614;9.882;2022-07-03T08:14:22;101417.47;;;27.71;40.84
21520;BME280;10921;53.614;9.882;2022-07-03T08:16:49;101429.84;;;27.85;41.91
21520;BME280;10921;53.614;9.882;2022-07-03T08:19:16;101426.16;;;27.91;40.78
21520;BME280;10921;53.614;9.882;2022-07-03T08:21:42;101430.63;;;27.97;40.19
21520;BME280;10921;53.614;9.882;2022-07-03T08:24:09;101427.28;;;28.07;40.47
21520;BME280;10921;53.614;9.882;2022-07-03T08:26:37;101423.72;;;28.07;39.87
21520;BME280;10921;53.614;9.882;2022-07-03T08:29:04;101438.34;;;28.12;39.73
21520;BME280;10921;53.614;9.882;2022-07-03T08:31:30;101435.38;;;28.14;40.07
21520;BME280;10921;53.614;9.882;2022-07-03T08:33:57;101426.91;;;28.15;40.10
21520;BME280;10921;53.614;9.882;2022-07-03T08:36:24;101426.41;;;28.18;38.76
21520;BME280;10921;53.614;9.882;2022-07-03T08:38:50;101432.75;;;28.19;39.39
21520;BME280;10921;53.614;9.882;2022-07-03T08:41:18;101427.72;;;28.16;39.93
21520;BME280;10921;53.614;9.882;2022-07-03T08:43:46;101421.06;;;28.12;40.29
21520;BME280;10921;53.614;9.882;2022-07-03T08:46:14;101426.22;;;28.08;39.79
21520;BME280;10921;53.614;9.882;2022-07-03T08:48:41;101422.66;;;28.08;41.35
21520;BME280;10921;53.614;9.882;2022-07-03T08:51:10;101429.03;;;28.13;39.64
21520;BME280;10921;53.614;9.882;2022-07-03T08:53:40;101427.97;;;28.14;39.20
21520;BME280;10921;53.614;9.882;2022-07-03T08:56:07;101424.41;;;28.14;38.97
21520;BME280;10921;53.614;9.882;2022-07-03T08:58:34;101426.81;;;28.10;39.41
21520;BME280;10921;53.614;9.882;2022-07-03T09:01:00;101436.13;;;28.09;39.31
21520;BME280;10921;53.614;9.882;2022-07-03T09:03:28;101436.59;;;28.06;39.90
21520;BME280;10921;53.614;9.882;2022-07-03T09:05:56;101435.41;;;28.02;39.82
21520;BME280;10921;53.614;9.882;2022-07-03T09:08:23;101433.50;;;28.02;40.57
21520;BME280;10921;53.614;9.882;2022-07-03T09:10:50;101432.66;;;28.02;39.76
21520;BME280;10921;53.614;9.882;2022-07-03T09:13:16;101441.38;;;27.99;39.54
21520;BME280;10921;53.614;9.882;2022-07-03T09:15:43;101431.38;;;27.93;39.43
21520;BME280;10921;53.614;9.882;2022-07-03T09:18:10;101444.75;;;27.89;40.09
21520;BME280;10921;53.614;9.882;2022-07-03T09:20:39;101443.56;;;27.85;40.67
21520;BME280;10921;53.614;9.882;2022-07-03T09:23:17;101441.75;;;27.91;40.39
21520;BME280;10921;53.614;9.882;2022-07-03T09:26:00;101446.19;;;27.92;40.91
21520;BME280;10921;53.614;9.882;2022-07-03T09:31:15;101445.84;;;28.17;41.86
21520;BME280;10921;53.614;9.882;2022-07-03T09:34:01;101439.69;;;28.50;40.35
21520;BME280;10921;53.614;9.882;2022-07-03T09:36:47;101438.03;;;28.94;39.39
21520;BME280;10921;53.614;9.882;2022-07-03T09:39:22;101439.13;;;29.26;38.65
21520;BME280;10921;53.614;9.882;2022-07-03T09:42:02;101444.97;;;29.68;38.08
21520;BME280;10921;53.614;9.882;2022-07-03T09:44:29;101444.19;;;29.90;36.75
21520;BME280;10921;53.614;9.882;2022-07-03T09:47:06;101442.59;;;30.16;35.98
21520;BME280;10921;53.614;9.882;2022-07-03T09:49:55;101443.34;;;30.33;36.42
21520;BME280;10921;53.614;9.882;2022-07-03T09:54:59;101440.13;;;30.63;35.60
21520;BME280;10921;53.614;9.882;2022-07-03T09:57:27;101435.66;;;30.89;34.69
21520;BME280;10921;53.614;9.882;2022-07-03T10:00:29;101445.03;;;31.15;35.58
21520;BME280;10921;53.614;9.882;2022-07-03T10:03:00;101442.06;;;31.26;33.36
21520;BME280;10921;53.614;9.882;2022-07-03T10:05:33;101431.19;;;31.46;32.38
21520;BME280;10921;53.614;9.882;2022-07-03T10:08:09;101433.59;;;31.75;31.94
21520;BME280;10921;53.614;9.882;2022-07-03T10:10:47;101429.59;;;32.08;31.07
21520;BME280;10921;53.614;9.882;2022-07-03T10:13:14;101437.94;;;32.28;29.38
21520;BME280;10921;53.614;9.882;2022-07-03T10:15:42;101427.50;;;32.45;30.90
21520;BME280;10921;53.614;9.882;2022-07-03T10:18:13;101424.75;;;32.71;30.11
21520;BME280;10921;53.614;9.882;2022-07-03T10:23:09;101425.09;;;33.10;29.46
21520;BME280;10921;53.614;9.882;2022-07-03T10:25:40;101425.34;;;33.34;29.69
21520;BME280;10921;53.614;9.882;2022-07-03T10:28:10;101432.53;;;33.45;28.98
21520;BME280;10921;53.614;9.882;2022-07-03T10:30:38;101431.41;;;33.56;29.07
21520;BME280;10921;53.614;9.882;2022-07-03T10:33:04;101430.25;;;33.67;30.51
21520;BME280;10921;53.614;9.882;2022-07-03T10:43:40;101433.41;;;34.20;28.00
21520;BME280;10921;53.614;9.882;2022-07-03T10:46:28;101430.56;;;34.25;27.57
21520;BME280;10921;53.614;9.882;2022-07-03T10:49:06;101440.50;;;34.41;27.74
21520;BME280;10921;53.614;9.882;2022-07-03T10:54:16;101425.25;;;34.39;28.53
21520;BME280;10921;53.614;9.882;2022-07-03T11:02:37;101424.81;;;34.21;26.52
21520;BME280;10921;53.614;9.882;2022-07-03T11:05:09;101435.66;;;34.08;26.99
21520;BME280;10921;53.614;9.882;2022-07-03T11:08:02;101429.13;;;33.73;27.47
21520;BME280;10921;53.614;9.882;2022-07-03T11:10:31;101428.69;;;33.41;27.61
21520;BME280;10921;53.614;9.882;2022-07-03T11:13:08;101420.94;;;33.33;27.47
21520;BME280;10921;53.614;9.882;2022-07-03T11:15:54;101418.19;;;33.28;28.63
21520;BME280;10921;53.614;9.882;2022-07-03T11:18:26;101417.34;;;33.32;26.94
21520;BME280;10921;53.614;9.882;2022-07-03T11:25:56;101411.31;;;34.05;27.20
21520;BME280;10921;53.614;9.882;2022-07-03T11:33:46;101413.00;;;34.89;27.62
21520;BME280;10921;53.614;9.882;2022-07-03T11:41:10;101410.31;;;35.13;26.86
21520;BME280;10921;53.614;9.882;2022-07-03T11:43:38;101407.34;;;34.99;26.84
21520;BME280;10921;53.614;9.882;2022-07-03T11:46:16;101404.06;;;34.97;27.03
21520;BME280;10921;53.614;9.882;2022-07-03T11:48:43;101403.09;;;34.83;26.68
21520;BME280;10921;53.614;9.882;2022-07-03T11:51:10;101401.72;;;34.80;27.32
21520;BME280;10921;53.614;9.882;2022-07-03T11:53:37;101402.03;;;34.69;26.92
21520;BME280;10921;53.614;9.882;2022-07-03T11:56:12;101404.59;;;34.65;27.54
21520;BME280;10921;53.614;9.882;2022-07-03T11:58:41;101400.56;;;34.47;27.04
21520;BME280;10921;53.614;9.882;2022-07-03T12:01:13;101408.09;;;34.81;27.14
21520;BME280;10921;53.614;9.882;2022-07-03T12:06:59;101401.28;;;34.19;28.06
21520;BME280;10921;53.614;9.882;2022-07-03T12:09:33;101404.34;;;34.12;28.25
21520;BME280;10921;53.614;9.882;2022-07-03T12:12:08;101403.25;;;34.08;27.92
21520;BME280;10921;53.614;9.882;2022-07-03T12:17:07;101409.91;;;34.07;27.08
21520;BME280;10921;53.614;9.882;2022-07-03T12:19:34;101405.81;;;33.95;26.91
21520;BME280;10921;53.614;9.882;2022-07-03T12:22:01;101390.34;;;33.88;26.15
21520;BME280;10921;53.614;9.882;2022-07-03T12:24:27;101399.16;;;34.01;27.01
21520;BME280;10921;53.614;9.882;2022-07-03T12:26:54;101397.47;;;34.05;26.25
21520;BME280;10921;53.614;9.882;2022-07-03T12:29:21;101390.50;;;34.07;26.01
21520;BME280;10921;53.614;9.882;2022-07-03T12:31:48;101394.66;;;34.10;25.95
21520;BME280;10921;53.614;9.882;2022-07-03T12:34:16;101384.19;;;34.07;26.37
21520;BME280;10921;53.614;9.882;2022-07-03T12:37:00;101394.63;;;34.20;27.71
21520;BME280;10921;53.614;9.882;2022-07-03T12:39:46;101396.88;;;34.13;26.30
21520;BME280;10921;53.614;9.882;2022-07-03T12:44:40;101390.41;;;33.68;27.02
21520;BME280;10921;53.614;9.882;2022-07-03T12:47:07;101382.66;;;33.65;26.06
21520;BME280;10921;53.614;9.882;2022-07-03T12:49:34;101374.91;;;33.67;26.66
21520;BME280;10921;53.614;9.882;2022-07-03T12:52:01;101379.66;;;33.57;26.95
21520;BME280;10921;53.614;9.882;2022-07-03T12:54:34;101380.22;;;33.59;27.34
21520;BME280;10921;53.614;9.882;2022-07-03T12:57:09;101379.38;;;33.53;26.91
21520;BME280;10921;53.614;9.882;2022-07-03T13:00:16;101364.72;;;33.58;28.06
21520;BME280;10921;53.614;9.882;2022-07-03T13:02:45;101360.56;;;33.55;27.41
21520;BME280;10921;53.614;9.882;2022-07-03T13:05:18;101373.56;;;33.60;28.00
21520;BME280;10921;53.614;9.882;2022-07-03T13:07:53;101369.16;;;33.48;27.05
21520;BME280;10921;53.614;9.882;2022-07-03T13:10:21;101365.59;;;33.43;27.14
21520;BME280;10921;53.614;9.882;2022-07-03T13:12:53;101372.19;;;33.57;26.37
21520;BME280;10921;53.614;9.882;2022-07-03T13:15:20;101360.25;;;33.67;26.11
21520;BME280;10921;53.614;9.882;2022-07-03T13:20:16;101357.63;;;33.96;26.03
21520;BME280;10921;53.614;9.882;2022-07-03T13:22:42;101341.06;;;33.91;27.55
21520;BME280;10921;53.614;9.882;2022-07-03T13:25:08;101351.31;;;33.90;25.01
21520;BME280;10921;53.614;9.882;2022-07-03T13:27:35;101345.81;;;33.75;24.52
21520;BME280;10921;53.614;9.882;2022-07-03T13:30:01;101336.19;;;33.62;25.11
21520;BME280;10921;53.614;9.882;2022-07-03T13:32:28;101334.03;;;33.49;25.00
21520;BME280;10921;53.614;9.882;2022-07-03T13:34:54;101341.25;;;33.40;24.79
21520;BME280;10921;53.614;9.882;2022-07-03T13:37:21;101343.47;;;33.38;24.64
21520;BME280;10921;53.614;9.882;2022-07-03T13:39:47;101341.53;;;33.38;24.89
21520;BME280;10921;53.614;9.882;2022-07-03T13:42:14;101334.63;;;33.41;23.62
21520;BME280;10921;53.614;9.882;2022-07-03T13:44:40;101326.56;;;33.49;24.59
21520;BME280;10921;53.614;9.882;2022-07-03T13:47:07;101332.56;;;33.72;24.65
21520;BME280;10921;53.614;9.882;2022-07-03T13:49:33;101330.28;;;33.89;24.99
21520;BME280;10921;53.614;9.882;2022-07-03T13:52:00;101330.22;;;33.99;24.30
21520;BME280;10921;53.614;9.882;2022-07-03T13:54:27;101331.22;;;34.13;23.69
21520;BME280;10921;53.614;9.882;2022-07-03T13:56:54;101329.56;;;34.12;23.19
21520;BME280;10921;53.614;9.882;2022-07-03T13:59:20;101314.91;;;34.12;23.92
21520;BME280;10921;53.614;9.882;2022-07-03T14:01:48;101317.91;;;34.20;24.21
21520;BME280;10921;53.614;9.882;2022-07-03T14:04:14;101321.97;;;34.33;25.25
21520;BME280;10921;53.614;9.882;2022-07-03T14:06:41;101318.38;;;34.33;22.85
21520;BME280;10921;53.614;9.882;2022-07-03T14:09:08;101310.34;;;34.26;23.04
21520;BME280;10921;53.614;9.882;2022-07-03T14:11:34;101322.81;;;34.34;22.41
21520;BME280;10921;53.614;9.882;2022-07-03T14:14:01;101319.63;;;34.50;22.94
21520;BME280;10921;53.614;9.882;2022-07-03T14:16:27;101320.25;;;34.42;22.83
21520;BME280;10921;53.614;9.882;2022-07-03T14:18:54;101315.22;;;34.49;23.19
21520;BME280;10921;53.614;9.882;2022-07-03T14:21:20;101315.97;;;34.55;24.01
21520;BME280;10921;53.614;9.882;2022-07-03T14:23:46;101308.19;;;34.57;23.32
21520;BME280;10921;53.614;9.882;2022-07-03T14:26:13;101315.34;;;34.63;23.34
21520;BME280;10921;53.614;9.882;2022-07-03T14:28:39;101316.47;;;34.62;23.12
21520;BME280;10921;53.614;9.882;2022-07-03T14:31:24;101315.66;;;34.62;23.40
21520;BME280;10921;53.614;9.882;2022-07-03T14:33:52;101309.56;;;34.60;23.54